Time;durP1;ratioP1;P1;durP2;ratioP2;P2;SDS_P1;SDS_P2;PMS_P1;PMS_P2;Temp;Humidity;BMP_temperature;BMP_pressure;BME280_temperature;BME280_humidity;BME280_pressure;Samples;Min_cycle;Max_cycle;Signal;HPM_P1;HPM_P2
2021/09/18 00:01:22;;;;;;;15.38;6.55;;;;;;;6.01;84.10;100076.47;5114097;28;20047;-53
2021/09/18 00:03:48;;;;;;;15.80;6.22;;;;;;;6.00;84.26;100079.06;5101868;28;20466;-53
2021/09/18 00:06:14;;;;;;;16.50;6.20;;;;;;;6.05;84.48;100093.63;5093088;28;20075;-51
2021/09/18 00:08:40;;;;;;;13.77;6.45;;;;;;;6.04;83.98;100096.22;5093038;28;20050;-49
2021/09/18 00:11:06;;;;;;;13.20;5.88;;;;;;;6.04;84.24;100097.06;5093418;28;20043;-53
2021/09/18 00:13:32;;;;;;;10.23;5.70;;;;;;;6.03;84.15;100091.91;5092052;28;20106;-53
2021/09/18 00:15:59;;;;;;;13.48;5.70;;;;;;;5.97;83.99;100095.41;5092035;28;20653;-52
2021/09/18 00:18:25;;;;;;;13.23;5.40;;;;;;;5.98;84.56;100104.88;5074763;28;20423;-51
2021/09/18 00:20:51;;;;;;;12.80;5.88;;;;;;;5.98;84.38;100102.28;5093334;28;20065;-53
2021/09/18 00:23:17;;;;;;;18.38;6.05;;;;;;;5.93;84.85;100104.91;5093153;28;20512;-50
2021/09/18 00:25:42;;;;;;;15.02;5.97;;;;;;;5.95;84.98;100100.59;5091830;28;20041;-54
2021/09/18 00:28:08;;;;;;;12.40;5.93;;;;;;;5.94;84.76;100105.78;5093015;28;20052;-53
2021/09/18 00:30:34;;;;;;;16.35;6.28;;;;;;;5.91;84.39;100104.06;5093405;28;20396;-54
2021/09/18 00:33:01;;;;;;;14.35;6.03;;;;;;;5.91;84.55;100101.47;5092437;28;20092;-55
2021/09/18 00:35:27;;;;;;;14.25;5.97;;;;;;;5.90;84.88;100104.09;5093255;28;20085;-55
2021/09/18 00:37:53;;;;;;;14.77;6.22;;;;;;;5.89;84.84;100105.81;5090394;28;20462;-57
2021/09/18 00:40:19;;;;;;;13.45;5.82;;;;;;;5.87;84.70;100098.94;5092182;28;20059;-52
2021/09/18 00:42:44;;;;;;;15.10;6.10;;;;;;;5.86;84.58;100110.94;5091095;28;20036;-55
2021/09/18 00:45:10;;;;;;;12.55;6.05;;;;;;;5.83;84.92;100103.25;5092524;28;20032;-50
2021/09/18 00:47:36;;;;;;;17.05;6.55;;;;;;;5.81;85.30;100099.81;5092633;28;20036;-53
2021/09/18 00:50:02;;;;;;;12.27;5.60;;;;;;;5.80;85.51;100110.16;5092170;28;20071;-54
2021/09/18 00:52:28;;;;;;;13.82;6.22;;;;;;;5.78;85.49;100117.06;5092542;28;20057;-53
2021/09/18 00:54:54;;;;;;;11.57;5.90;;;;;;;5.77;86.07;100108.47;5091438;28;20036;-53
2021/09/18 00:57:20;;;;;;;14.30;5.72;;;;;;;5.76;85.90;100109.31;5074424;28;20039;-53
2021/09/18 00:59:45;;;;;;;12.07;5.90;;;;;;;5.68;85.98;100094.78;5091874;28;20035;-52
2021/09/18 01:02:11;;;;;;;12.88;6.15;;;;;;;5.74;85.66;100108.50;5092257;28;20040;-53
2021/09/18 01:04:37;;;;;;;17.08;5.75;;;;;;;5.72;85.75;100104.19;5090862;28;20048;-53
2021/09/18 01:07:04;;;;;;;17.80;7.18;;;;;;;5.67;86.25;100109.41;5091923;28;20043;-51
2021/09/18 01:09:31;;;;;;;11.27;5.70;;;;;;;5.66;86.01;100118.00;5074177;28;20036;-53
2021/09/18 01:11:57;;;;;;;13.05;5.45;;;;;;;5.63;86.59;100117.19;5073891;28;20468;-49
2021/09/18 01:14:23;;;;;;;13.25;5.72;;;;;;;5.62;86.85;100121.47;5090998;28;20047;-52
2021/09/18 01:16:49;;;;;;;9.55;5.20;;;;;;;5.62;86.30;100118.03;5074137;28;20039;-54
2021/09/18 01:19:15;;;;;;;10.27;5.85;;;;;;;5.59;86.15;100115.50;5092153;28;20396;-53
2021/09/18 01:21:40;;;;;;;11.93;5.30;;;;;;;5.46;86.54;100099.25;5091504;28;20032;-53
2021/09/18 01:24:06;;;;;;;11.32;5.45;;;;;;;5.50;86.21;100112.09;5092080;28;20561;-50
2021/09/18 01:26:33;;;;;;;15.48;6.38;;;;;;;5.58;86.12;100127.53;5091733;28;20048;-52
2021/09/18 01:28:59;;;;;;;12.25;5.22;;;;;;;5.48;86.44;100113.00;5091817;28;20036;-55
2021/09/18 01:31:25;;;;;;;11.60;5.28;;;;;;;5.54;86.87;100126.72;5091321;28;20040;-52
2021/09/18 01:33:51;;;;;;;11.55;5.20;;;;;;;5.54;86.92;100133.59;5091950;28;20130;-51
2021/09/18 01:36:17;;;;;;;14.45;4.35;;;;;;;5.53;86.17;100130.16;5098078;28;20031;-50
2021/09/18 01:38:43;;;;;;;9.65;4.60;;;;;;;5.52;86.38;100133.59;5090039;28;20530;-51
2021/09/18 01:41:08;;;;;;;12.27;4.85;;;;;;;5.53;86.59;100134.44;5091639;28;20044;-54
2021/09/18 01:43:34;;;;;;;10.38;4.95;;;;;;;5.52;86.46;100136.16;5090999;28;20036;-52
2021/09/18 01:46:00;;;;;;;10.13;4.90;;;;;;;5.49;86.50;100125.88;5090222;28;20040;-52
2021/09/18 01:48:26;;;;;;;8.00;4.25;;;;;;;5.42;86.86;100116.47;5091515;28;20036;-50
2021/09/18 01:50:56;;;;;;;10.07;4.80;;;;;;;5.47;86.94;100124.16;5090270;28;20042;-52
2021/09/18 01:53:23;;;;;;;11.65;4.95;;;;;;;5.45;86.68;100131.03;5089811;28;20067;-54
2021/09/18 01:55:50;;;;;;;12.50;5.10;;;;;;;5.45;86.90;100126.75;5090044;28;20568;-51
2021/09/18 01:58:15;;;;;;;11.65;4.97;;;;;;;5.35;86.55;100113.91;5091269;28;20106;-53
2021/09/18 02:00:49;;;;;;;11.15;4.93;;;;;;;5.43;86.99;100125.91;5089882;28;20036;-51
2021/09/18 02:03:15;;;;;;;8.88;4.68;;;;;;;5.33;86.75;100107.94;5090545;28;20036;-53
2021/09/18 02:05:41;;;;;;;8.93;4.45;;;;;;;5.32;86.62;100121.69;5090874;28;20069;-53
2021/09/18 02:08:07;;;;;;;8.50;4.75;;;;;;;5.35;86.71;100126.81;5089809;28;20072;-51
2021/09/18 02:10:32;;;;;;;8.82;4.55;;;;;;;5.34;86.93;100131.09;5090698;28;20043;-53
2021/09/18 02:13:04;;;;;;;8.13;4.30;;;;;;;5.34;87.30;100131.09;5090983;28;20529;-54
2021/09/18 02:15:30;;;;;;;14.80;4.90;;;;;;;5.32;86.79;100130.28;5090116;28;20067;-53
2021/09/18 02:17:56;;;;;;;12.55;4.72;;;;;;;5.31;86.90;100131.13;5089726;28;20067;-51
2021/09/18 02:20:25;;;;;;;10.65;4.32;;;;;;;5.29;86.57;100135.44;5090925;28;20038;-53
2021/09/18 02:22:51;;;;;;;7.55;4.10;;;;;;;5.28;86.85;100133.75;5090954;28;20127;-52
2021/09/18 02:25:17;;;;;;;15.18;5.18;;;;;;;5.27;86.89;100139.75;5090299;28;20127;-53
2021/09/18 02:27:43;;;;;;;15.05;4.40;;;;;;;5.25;87.17;100131.16;5090795;28;20086;-53
2021/09/18 02:30:15;;;;;;;12.10;5.72;;;;;;;5.23;86.65;100143.22;5090149;28;20054;-53
2021/09/18 02:32:41;;;;;;;7.65;4.10;;;;;;;5.15;86.98;100131.22;5109858;28;20080;-53
2021/09/18 02:35:10;;;;;;;10.93;4.32;;;;;;;5.18;86.83;100139.81;5126348;27;20040;-53
2021/09/18 02:37:37;;;;;;;12.23;4.03;;;;;;;5.18;86.94;100152.72;5100856;28;20505;-53
2021/09/18 02:40:06;;;;;;;9.65;4.15;;;;;;;5.20;87.37;100158.69;5089019;28;20051;-52
2021/09/18 02:42:32;;;;;;;11.55;4.45;;;;;;;5.19;86.56;100159.56;5072541;28;20032;-51
2021/09/18 02:44:58;;;;;;;12.13;4.90;;;;;;;5.19;86.76;100167.28;5088522;28;20083;-51
2021/09/18 02:47:24;;;;;;;8.88;4.47;;;;;;;5.17;86.90;100163.00;5089441;28;20079;-52
2021/09/18 02:49:49;;;;;;;10.25;4.18;;;;;;;5.16;86.48;100167.31;5072006;28;20061;-49
2021/09/18 02:52:15;;;;;;;9.68;4.55;;;;;;;5.15;87.13;100164.72;5089122;28;20050;-51
2021/09/18 02:54:41;;;;;;;9.10;4.20;;;;;;;5.13;86.80;100174.22;5089080;28;20062;-54
2021/09/18 02:57:06;;;;;;;12.57;4.20;;;;;;;4.96;86.68;100140.78;5088763;28;20040;-54
2021/09/18 02:59:32;;;;;;;8.32;4.25;;;;;;;5.09;87.29;100171.63;5090387;28;20044;-54
2021/09/18 03:01:58;;;;;;;7.95;3.60;;;;;;;5.06;86.73;100174.22;5090325;28;20089;-55
2021/09/18 03:04:24;;;;;;;9.13;4.10;;;;;;;5.06;87.04;100176.81;5088846;28;20048;-54
2021/09/18 03:06:49;;;;;;;8.02;3.97;;;;;;;5.06;87.15;100165.63;5088644;28;20584;-55
2021/09/18 03:09:15;;;;;;;9.48;4.45;;;;;;;5.06;87.05;100175.94;5090234;28;20101;-54
2021/09/18 03:11:41;;;;;;;12.63;4.30;;;;;;;5.03;86.66;100175.94;5089881;28;20123;-54
2021/09/18 03:14:06;;;;;;;19.52;6.70;;;;;;;4.95;87.14;100160.53;5090150;28;20040;-55
2021/09/18 03:16:32;;;;;;;9.10;4.40;;;;;;;4.94;87.14;100163.09;5088348;28;20527;-51
2021/09/18 03:18:58;;;;;;;11.57;4.60;;;;;;;5.05;86.52;100180.25;5090093;28;20044;-54
2021/09/18 03:21:24;;;;;;;15.65;4.50;;;;;;;5.05;86.64;100181.97;5090167;28;20044;-54
2021/09/18 03:23:49;;;;;;;7.60;4.07;;;;;;;5.05;87.08;100181.97;5088686;28;20628;-54
2021/09/18 03:26:15;;;;;;;11.57;4.70;;;;;;;5.07;86.42;100182.81;5092429;28;20035;-56
2021/09/18 03:28:41;;;;;;;14.48;4.45;;;;;;;5.08;86.67;100182.78;5113951;28;20085;-51
2021/09/18 03:31:06;;;;;;;12.30;4.00;;;;;;;5.05;86.66;100176.81;5114501;28;20537;-55
2021/09/18 03:33:32;;;;;;;7.63;4.30;;;;;;;5.13;86.33;100188.78;5108281;28;20051;-54
2021/09/18 03:35:58;;;;;;;10.18;3.92;;;;;;;5.17;86.10;100199.09;5082141;28;20035;-49
2021/09/18 03:38:23;;;;;;;12.93;4.32;;;;;;;5.18;85.73;100193.94;5088000;28;20530;-53
2021/09/18 03:40:49;;;;;;;9.40;4.32;;;;;;;5.20;85.77;100187.03;5092904;28;20410;-51
2021/09/18 03:43:15;;;;;;;8.05;4.55;;;;;;;5.25;85.63;100192.19;5082900;28;20044;-54
2021/09/18 03:45:40;;;;;;;7.68;3.80;;;;;;;5.26;85.60;100196.47;5093515;28;20122;-52
2021/09/18 03:48:06;;;;;;;8.30;4.03;;;;;;;5.30;85.71;100199.03;5093268;28;20048;-49
2021/09/18 03:50:32;;;;;;;14.93;4.28;;;;;;;5.35;84.99;100204.16;5067929;28;20119;-54
2021/09/18 03:52:58;;;;;;;10.38;3.92;;;;;;;5.40;85.43;100205.84;5086993;28;20063;-52
2021/09/18 03:55:24;;;;;;;10.82;4.15;;;;;;;5.44;85.25;100201.56;5092603;28;20075;-53
2021/09/18 03:57:49;;;;;;;11.65;3.60;;;;;;;5.44;84.62;100194.66;5092394;28;20465;-50
2021/09/18 04:00:15;;;;;;;10.68;3.97;;;;;;;5.55;85.07;100210.91;5091287;28;20036;-53
2021/09/18 04:02:41;;;;;;;8.45;3.45;;;;;;;5.63;84.44;100202.28;5093218;28;20036;-54
2021/09/18 04:05:08;;;;;;;15.38;4.10;;;;;;;5.70;83.85;100211.72;5093099;28;20139;-52
2021/09/18 04:07:33;;;;;;;9.90;3.50;;;;;;;5.78;83.49;100208.22;5092248;28;20040;-52
2021/09/18 04:09:59;;;;;;;9.25;3.65;;;;;;;5.84;83.06;100212.47;5091626;28;20085;-53
2021/09/18 04:12:25;;;;;;;6.47;3.20;;;;;;;5.76;82.76;100188.44;5093466;28;20092;-54
2021/09/18 04:14:51;;;;;;;13.07;3.45;;;;;;;5.98;82.63;100218.41;5088876;28;20419;-57
2021/09/18 04:17:16;;;;;;;9.95;3.50;;;;;;;6.04;82.55;100213.22;5083029;28;20400;-53
2021/09/18 04:19:42;;;;;;;14.02;3.33;;;;;;;6.02;81.66;100207.19;5093143;28;20183;-55
2021/09/18 04:22:08;;;;;;;73.82;7.78;;;;;;;6.18;81.17;100228.59;5092884;28;20052;-52
2021/09/18 04:24:37;;;;;;;7.68;3.65;;;;;;;6.21;80.76;100224.28;5089091;28;20094;-52
2021/09/18 04:27:03;;;;;;;12.38;3.63;;;;;;;6.22;80.50;100230.31;5092381;28;20036;-49
2021/09/18 04:29:31;;;;;;;4.85;2.97;;;;;;;6.24;80.00;100231.97;5092404;28;20161;-52
2021/09/18 04:31:57;;;;;;;7.63;3.13;;;;;;;6.29;80.07;100222.47;5088446;28;20134;-51
2021/09/18 04:34:23;;;;;;;5.15;3.15;;;;;;;6.34;79.36;100233.63;5078244;28;20066;-51
2021/09/18 04:36:48;;;;;;;7.53;2.90;;;;;;;6.39;78.93;100231.00;5072493;28;20131;-52
2021/09/18 04:39:17;;;;;;;4.68;3.28;;;;;;;6.47;79.27;100221.47;5091007;28;20181;-53
2021/09/18 04:41:43;;;;;;;5.07;2.63;;;;;;;6.53;78.82;100228.31;5091800;28;20048;-55
2021/09/18 04:44:09;;;;;;;8.43;2.78;;;;;;;6.58;78.23;100224.81;5091051;28;20047;-56
2021/09/18 04:46:35;;;;;;;8.10;3.00;;;;;;;6.65;77.96;100229.03;5088298;28;20036;-54
2021/09/18 04:49:01;;;;;;;4.95;2.60;;;;;;;6.73;77.92;100231.56;5089622;28;20039;-56
2021/09/18 04:51:26;;;;;;;9.43;3.03;;;;;;;6.70;77.66;100213.47;5091367;28;20507;-50
2021/09/18 04:53:52;;;;;;;5.32;2.85;;;;;;;6.87;77.13;100229.66;5092514;28;20043;-50
2021/09/18 04:56:18;;;;;;;7.07;3.10;;;;;;;6.95;76.50;100217.53;5092333;28;20127;-54
2021/09/18 04:58:45;;;;;;;9.88;2.95;;;;;;;6.97;75.98;100213.19;5074148;28;20044;-56
2021/09/18 05:01:11;;;;;;;21.92;4.22;;;;;;;7.13;75.33;100224.22;5091834;28;20036;-52
2021/09/18 05:03:36;;;;;;;12.90;2.53;;;;;;;7.23;74.91;100226.66;5073624;28;20074;-52
2021/09/18 05:06:02;;;;;;;6.60;2.60;;;;;;;7.33;74.45;100227.41;5086410;28;20431;-48
2021/09/18 05:08:28;;;;;;;3.53;2.47;;;;;;;7.42;73.91;100222.13;5070543;28;20109;-49
2021/09/18 05:10:53;;;;;;;5.60;2.50;;;;;;;7.52;73.40;100225.47;5070403;28;20045;-51
2021/09/18 05:13:19;;;;;;;4.50;2.67;;;;;;;7.58;72.98;100222.78;5096764;28;20093;-50
2021/09/18 05:15:45;;;;;;;4.63;2.80;;;;;;;7.62;72.53;100229.63;5111171;28;20566;-51
2021/09/18 05:18:10;;;;;;;5.07;2.42;;;;;;;7.69;72.16;100222.63;5103154;28;20044;-50
2021/09/18 05:20:36;;;;;;;11.90;2.40;;;;;;;7.71;72.19;100218.28;5091800;28;20101;-52
2021/09/18 05:23:02;;;;;;;9.70;2.80;;;;;;;7.91;71.42;100231.78;5104506;28;20047;-54
2021/09/18 05:25:27;;;;;;;12.43;3.25;;;;;;;7.97;71.17;100222.19;5071549;28;20036;-54
2021/09/18 05:27:53;;;;;;;6.75;2.80;;;;;;;8.02;70.53;100220.41;5071614;28;20037;-53
2021/09/18 05:30:19;;;;;;;5.05;2.83;;;;;;;8.06;70.11;100223.78;5071317;28;20515;-55
2021/09/18 05:32:45;;;;;;;5.50;2.83;;;;;;;8.11;69.85;100227.19;5084451;28;20412;-52
2021/09/18 05:35:10;;;;;;;10.43;2.90;;;;;;;8.26;69.88;100221.75;5076572;28;20043;-55
2021/09/18 05:37:37;;;;;;;4.43;2.30;;;;;;;8.39;69.16;100227.59;5078713;28;20031;-54
2021/09/18 05:40:03;;;;;;;7.97;2.53;;;;;;;8.46;68.86;100224.91;5087334;28;20530;-55
2021/09/18 05:42:29;;;;;;;7.13;3.00;;;;;;;8.74;68.40;100233.03;5071041;28;20052;-54
2021/09/18 05:44:55;;;;;;;9.20;2.90;;;;;;;9.11;67.62;100240.09;5087387;28;20044;-52
2021/09/18 05:47:21;;;;;;;6.60;2.30;;;;;;;9.60;66.02;100237.38;5091112;28;20048;-55
2021/09/18 05:49:46;;;;;;;7.38;2.72;;;;;;;10.30;64.07;100241.00;5089974;28;20050;-55
2021/09/18 05:52:12;;;;;;;6.28;2.70;;;;;;;11.15;61.43;100246.59;5091521;28;20556;-53
2021/09/18 05:54:38;;;;;;;5.72;2.35;;;;;;;11.93;58.68;100233.00;5090922;28;20115;-55
2021/09/18 05:57:04;;;;;;;6.28;2.33;;;;;;;12.00;57.39;100247.53;5091394;28;20624;-59
2021/09/18 05:59:29;;;;;;;6.80;2.38;;;;;;;12.38;56.68;100246.31;5090874;28;20604;-58
2021/09/18 06:01:55;;;;;;;5.32;2.38;;;;;;;13.12;53.94;100253.38;5089744;28;20079;-54
2021/09/18 06:04:21;;;;;;;5.43;2.50;;;;;;;13.92;51.78;100244.28;5089074;28;20063;-60
2021/09/18 06:06:46;;;;;;;4.30;2.22;;;;;;;14.57;49.88;100244.25;5091045;28;20044;-56
2021/09/18 06:09:12;;;;;;;5.72;2.72;;;;;;;15.26;48.00;100247.38;5089529;28;20052;-54
2021/09/18 06:11:38;;;;;;;4.82;1.90;;;;;;;15.80;46.70;100243.19;5090912;28;20124;-54
2021/09/18 06:14:04;;;;;;;5.28;2.00;;;;;;;15.40;47.55;100241.50;5090932;28;20054;-53
2021/09/18 06:16:29;;;;;;;3.22;1.70;;;;;;;16.07;45.29;100234.84;5090467;28;20039;-59
2021/09/18 06:18:55;;;;;;;5.45;1.85;;;;;;;17.03;43.70;100237.09;5089848;28;20084;-60
2021/09/18 06:21:21;;;;;;;4.18;1.55;;;;;;;17.80;41.55;100243.44;5089268;28;20044;-59
2021/09/18 06:23:47;;;;;;;2.95;1.80;;;;;;;18.36;40.68;100237.66;5072513;28;20042;-59
2021/09/18 06:26:14;;;;;;;2.45;1.60;;;;;;;18.96;39.05;100235.00;5089985;28;20507;-58
2021/09/18 06:28:40;;;;;;;2.85;1.88;;;;;;;19.23;38.17;100235.97;5090583;28;20129;-55
2021/09/18 06:31:05;;;;;;;2.10;1.48;;;;;;;19.65;37.08;100236.91;5090280;28;20551;-58
2021/09/18 06:33:31;;;;;;;2.72;1.38;;;;;;;19.87;36.82;100222.28;5088408;28;20078;-57
2021/09/18 06:35:57;;;;;;;1.88;1.20;;;;;;;20.61;35.43;100235.03;5069681;28;20433;-50
2021/09/18 06:38:22;;;;;;;2.20;1.20;;;;;;;21.43;33.91;100239.94;5084122;28;20046;-55
2021/09/18 06:40:53;;;;;;;1.85;1.30;;;;;;;21.36;33.55;100238.69;5089849;28;20043;-54
2021/09/18 06:43:20;;;;;;;2.17;1.75;;;;;;;22.01;32.37;100230.53;5089419;28;20054;-54
2021/09/18 06:45:47;;;;;;;3.05;1.23;;;;;;;22.65;31.80;100237.19;5089646;28;20039;-56
2021/09/18 06:48:13;;;;;;;8.48;1.90;;;;;;;23.10;30.71;100234.66;5089463;28;20044;-52
2021/09/18 06:50:39;;;;;;;4.22;1.35;;;;;;;23.53;29.98;100238.34;5089635;28;20552;-52
2021/09/18 06:53:06;;;;;;;4.35;1.65;;;;;;;23.61;29.43;100229.75;5089531;28;20031;-53
2021/09/18 06:55:32;;;;;;;4.90;2.53;;;;;;;23.50;29.62;100219.97;5089636;28;20065;-53
2021/09/18 06:57:59;;;;;;;8.98;1.63;;;;;;;23.76;29.15;100233.84;5089143;28;20187;-50
2021/09/18 07:00:30;;;;;;;;;;;;;;;23.77;28.98;100235.53;5089618;28;20043;-57
2021/09/18 07:02:56;;;;;;;4.55;1.27;;;;;;;23.75;28.73;100226.84;5099187;28;19916;-54
2021/09/18 07:05:22;;;;;;;7.80;2.80;;;;;;;22.98;29.56;100228.50;5107234;28;20050;-50
2021/09/18 07:07:48;;;;;;;9.95;1.45;;;;;;;22.27;30.32;100228.59;5087188;28;20430;-50
2021/09/18 07:10:14;;;;;;;3.88;1.88;;;;;;;23.36;29.06;100229.97;5088757;28;20042;-45
2021/09/18 07:12:42;;;;;;;6.68;2.03;;;;;;;24.08;28.07;100236.53;5089953;28;20051;-52
2021/09/18 07:15:09;;;;;;;3.55;1.48;;;;;;;25.27;26.82;100236.25;5089445;28;20039;-50
2021/09/18 07:17:35;;;;;;;4.50;1.25;;;;;;;25.29;26.42;100228.09;5089538;28;20044;-48
2021/09/18 07:20:01;;;;;;;10.55;1.58;;;;;;;25.95;25.77;100225.84;5088417;28;20111;-48
2021/09/18 07:22:28;;;;;;;2.08;1.60;;;;;;;26.50;25.09;100235.03;5089518;28;20044;-50
2021/09/18 07:24:54;;;;;;;2.80;1.83;;;;;;;26.47;24.73;100228.16;5089522;28;20040;-51
2021/09/18 07:27:20;;;;;;;6.28;1.55;;;;;;;26.73;24.47;100228.44;5085877;28;20511;-51
2021/09/18 07:29:46;;;;;;;2.00;1.40;;;;;;;27.32;23.72;100230.81;5089319;28;20040;-53
2021/09/18 07:32:13;;;;;;;4.93;1.63;;;;;;;27.57;23.12;100229.38;5089489;28;20750;-49
2021/09/18 07:34:39;;;;;;;3.63;1.48;;;;;;;27.49;23.21;100223.88;5079882;28;20131;-49
2021/09/18 07:37:16;;;;;;;2.90;2.10;;;;;;;27.94;22.90;100220.44;5070391;28;20515;-52
2021/09/18 07:39:41;;;;;;;4.85;1.50;;;;;;;28.45;22.24;100219.78;5088910;28;20043;-53
2021/09/18 07:42:07;;;;;;;3.15;1.25;;;;;;;28.27;22.32;100219.78;5089877;28;20420;-51
2021/09/18 07:44:33;;;;;;;3.00;1.83;;;;;;;27.86;22.37;100221.16;5087433;28;20528;-48
2021/09/18 07:47:03;;;;;;;3.47;1.45;;;;;;;26.93;22.95;100213.25;5089857;28;20036;-54
2021/09/18 07:49:29;;;;;;;3.20;1.02;;;;;;;24.82;24.85;100217.03;5089092;28;20672;-48
2021/09/18 07:51:55;;;;;;;6.93;1.38;;;;;;;24.57;24.84;100212.13;5089635;28;20051;-49
2021/09/18 07:54:21;;;;;;;6.75;1.52;;;;;;;24.50;25.24;100205.59;5089450;28;20035;-56
2021/09/18 07:56:47;;;;;;;7.88;4.50;;;;;;;25.84;24.22;100208.16;5091129;28;20039;-51
2021/09/18 07:59:13;;;;;;;6.13;1.50;;;;;;;26.24;23.41;100205.44;5089854;28;20047;-49
2021/09/18 08:01:39;;;;;;;4.00;1.50;;;;;;;24.65;24.96;100206.97;5089265;28;20040;-53
2021/09/18 08:04:04;;;;;;;3.17;1.25;;;;;;;23.77;25.73;100203.66;5089525;28;20073;-53
2021/09/18 08:06:33;;;;;;;7.28;1.38;;;;;;;23.37;26.05;100205.97;5088299;28;20048;-55
2021/09/18 08:08:58;;;;;;;7.65;2.55;;;;;;;23.50;25.93;100196.09;5089721;28;20068;-52
2021/09/18 08:11:24;;;;;;;4.18;1.42;;;;;;;23.46;26.28;100209.75;5089526;28;20472;-55
2021/09/18 08:13:51;;;;;;;6.15;1.88;;;;;;;22.59;27.08;100205.84;5092749;28;20043;-54
2021/09/18 08:16:17;;;;;;;3.47;1.33;;;;;;;21.39;28.17;100206.75;5092332;28;20076;-53
2021/09/18 08:18:43;;;;;;;2.90;1.23;;;;;;;20.34;29.65;100199.88;5092890;28;20071;-53
2021/09/18 08:21:11;;;;;;;5.30;1.55;;;;;;;19.72;30.46;100206.59;5091307;28;20505;-45
2021/09/18 08:23:37;;;;;;;3.60;1.20;;;;;;;19.50;30.88;100196.53;5093115;28;20119;-49
2021/09/18 08:26:03;;;;;;;2.17;0.90;;;;;;;19.91;30.67;100201.81;5091649;28;20039;-53
2021/09/18 08:28:29;;;;;;;5.90;1.33;;;;;;;19.47;31.28;100201.97;5092618;28;20565;-52
2021/09/18 08:30:54;;;;;;;1.83;1.35;;;;;;;18.88;31.99;100201.22;5090970;28;20094;-58
2021/09/18 08:33:20;;;;;;;4.03;1.30;;;;;;;20.13;30.39;100204.75;5092256;28;20594;-55
2021/09/18 08:35:46;;;;;;;3.75;1.90;;;;;;;21.52;29.04;100210.19;5090207;28;20032;-62
2021/09/18 08:38:12;;;;;;;4.40;1.40;;;;;;;21.77;28.74;100203.97;5091039;28;20040;-55
2021/09/18 08:40:38;;;;;;;2.05;1.30;;;;;;;21.52;28.87;100209.34;5088828;28;20050;-56
2021/09/18 08:43:05;;;;;;;3.25;1.50;;;;;;;21.27;29.37;100220.81;5090129;28;20093;-55
2021/09/18 08:45:31;;;;;;;2.42;1.30;;;;;;;22.87;27.57;100207.28;5091069;28;20077;-55
2021/09/18 08:47:58;;;;;;;3.03;1.40;;;;;;;22.74;27.74;100203.88;5092321;28;20032;-53
2021/09/18 08:50:24;;;;;;;5.57;1.67;;;;;;;21.82;28.61;100201.03;5092897;28;20085;-59
2021/09/18 08:52:52;;;;;;;4.88;1.45;;;;;;;21.83;28.47;100202.69;5091992;28;20039;-58
2021/09/18 08:55:17;;;;;;;2.17;1.45;;;;;;;21.79;28.47;100204.72;5090959;28;20044;-54
2021/09/18 08:57:43;;;;;;;2.97;1.70;;;;;;;21.95;28.34;100197.38;5090888;28;20032;-53
2021/09/18 09:00:32;;;;;;;3.72;1.90;;;;;;;21.77;28.43;100206.63;5091054;28;20461;-58
2021/09/18 09:03:00;;;;;;;5.35;1.80;;;;;;;22.36;27.84;100198.78;5091827;28;20040;-60
2021/09/18 09:05:45;;;;;;;3.42;1.33;;;;;;;21.77;28.11;100198.69;5089337;28;20080;-59
2021/09/18 09:08:16;;;;;;;3.25;1.58;;;;;;;21.23;28.59;100199.97;5091966;28;20039;-61
2021/09/18 09:10:45;;;;;;;3.22;1.70;;;;;;;22.26;27.85;100203.91;5092281;28;20072;-60
2021/09/18 09:13:13;;;;;;;1.63;1.20;;;;;;;23.23;26.92;100208.88;5091955;28;20040;-60
2021/09/18 09:15:40;;;;;;;2.15;1.40;;;;;;;23.64;26.37;100206.47;5091725;28;20039;-61
2021/09/18 09:18:15;;;;;;;4.53;1.83;;;;;;;24.76;25.12;100204.25;5092063;28;20036;-60
2021/09/18 09:20:40;;;;;;;8.07;2.08;;;;;;;25.72;24.07;100203.91;5090429;28;20044;-60
2021/09/18 09:23:26;;;;;;;6.75;3.35;;;;;;;26.88;22.69;100203.00;5090563;28;20093;-60
2021/09/18 09:25:53;;;;;;;3.72;1.38;;;;;;;27.67;21.78;100206.09;5090872;28;20090;-60
2021/09/18 09:28:33;;;;;;;5.07;2.20;;;;;;;28.51;20.68;100208.47;5090140;28;20507;-60
2021/09/18 09:31:12;;;;;;;6.45;5.80;;;;;;;29.20;20.26;100199.59;5091706;28;20047;-60
2021/09/18 09:33:57;;;;;;;2.25;1.67;;;;;;;29.18;20.46;100197.09;5088243;28;20071;-60
2021/09/18 09:36:23;;;;;;;7.78;4.70;;;;;;;29.25;20.36;100191.94;5086584;28;20036;-60
2021/09/18 09:38:59;;;;;;;7.13;2.10;;;;;;;29.39;19.86;100178.81;5087488;28;20131;-58
2021/09/18 09:41:35;;;;;;;4.10;2.10;;;;;;;29.22;19.70;100194.91;5090376;28;20078;-60
2021/09/18 09:44:04;;;;;;;8.88;6.88;;;;;;;29.38;19.74;100198.56;5090065;28;20086;-59
2021/09/18 09:46:30;;;;;;;9.20;5.82;;;;;;;29.64;19.46;100168.16;5089597;28;20131;-59
2021/09/18 09:49:03;;;;;;;4.82;2.30;;;;;;;30.37;19.23;100195.13;5089669;28;20043;-59
2021/09/18 09:51:29;;;;;;;3.47;2.00;;;;;;;30.81;19.01;100195.66;5091330;28;20129;-59
2021/09/18 09:54:14;;;;;;;3.10;2.28;;;;;;;31.12;18.53;100181.34;5089941;28;20499;-60
2021/09/18 09:56:41;;;;;;;3.67;2.03;;;;;;;30.87;18.70;100186.91;5090678;28;20043;-59
2021/09/18 09:59:07;;;;;;;16.98;2.58;;;;;;;28.98;19.80;100199.16;5091147;28;20423;-63
2021/09/18 10:01:32;;;;;;;25.48;3.00;;;;;;;27.49;21.08;100185.63;5090712;28;20036;-60
2021/09/18 10:03:58;;;;;;;7.30;3.00;;;;;;;26.08;22.41;100195.28;5091008;28;20511;-59
2021/09/18 10:06:24;;;;;;;4.60;2.20;;;;;;;25.11;23.43;100198.63;5089090;28;20072;-59
2021/09/18 10:08:51;;;;;;;6.90;2.30;;;;;;;25.12;23.51;100191.50;5089370;28;20052;-61
2021/09/18 10:11:30;;;;;;;3.65;1.75;;;;;;;24.48;24.11;100189.81;5090817;28;20058;-60
2021/09/18 10:13:57;;;;;;;6.07;2.28;;;;;;;25.55;23.12;100189.44;5073556;28;20050;-60
2021/09/18 10:16:26;;;;;;;6.40;1.88;;;;;;;26.65;21.91;100192.75;5089143;28;20036;-60
2021/09/18 10:25:21;;;;;;;9.77;2.63;;;;;;;29.31;20.14;100210.06;5089318;28;20399;-59
2021/09/18 10:28:10;;;;;;;12.32;9.30;;;;;;;29.58;19.55;100206.31;5090286;28;20672;-59
2021/09/18 10:30:48;;;;;;;5.07;2.17;;;;;;;29.71;19.00;100209.41;5090621;28;20951;-60
2021/09/18 10:33:35;;;;;;;4.10;1.98;;;;;;;29.97;18.86;100198.59;5089213;28;20060;-59
2021/09/18 10:36:11;;;;;;;2.53;1.77;;;;;;;28.68;19.87;100194.25;5069999;28;20040;-59
2021/09/18 10:38:43;;;;;;;6.30;1.88;;;;;;;27.14;21.25;100189.03;5085598;28;20089;-59
2021/09/18 10:41:13;;;;;;;2.72;1.67;;;;;;;25.62;22.56;100184.41;5088829;28;20456;-60
2021/09/18 10:44:03;;;;;;;3.58;2.30;;;;;;;26.11;22.57;100202.16;5088361;28;20515;-60
2021/09/18 10:46:47;;;;;;;3.17;2.10;;;;;;;27.32;21.27;100198.78;5089898;28;20060;-62
2021/09/18 10:49:33;;;;;;;2.88;1.90;;;;;;;27.70;20.98;100199.59;5089590;28;20028;-60
2021/09/18 10:52:17;;;;;;;3.65;2.15;;;;;;;28.48;20.30;100206.94;5090293;28;20089;-60
2021/09/18 10:55:02;;;;;;;10.10;3.97;;;;;;;28.56;20.33;100200.81;5090277;28;20591;-58
2021/09/18 10:57:53;;;;;;;7.95;2.30;;;;;;;29.30;19.49;100205.69;5089995;28;20036;-59
2021/09/18 11:00:19;;;;;;;8.35;3.92;;;;;;;29.45;19.65;100204.97;5081372;28;20503;-60
2021/09/18 11:02:54;;;;;;;6.38;2.85;;;;;;;30.15;19.09;100201.97;5090106;28;20046;-61
2021/09/18 11:05:23;;;;;;;8.10;1.98;;;;;;;30.05;19.07;100198.59;5089635;28;20055;-61
2021/09/18 11:07:50;;;;;;;2.30;1.90;;;;;;;29.37;19.52;100183.47;5088507;28;20528;-60
2021/09/18 11:10:36;;;;;;;13.63;2.08;;;;;;;27.98;20.57;100190.56;5088558;28;20047;-60
2021/09/18 11:13:08;;;;;;;2.40;1.60;;;;;;;26.21;22.08;100181.69;5089908;28;20043;-60
2021/09/18 11:15:46;;;;;;;5.35;2.00;;;;;;;24.81;23.29;100182.59;5089785;28;20183;-60
2021/09/18 11:18:31;;;;;;;;;;;;;;;24.16;24.26;100188.09;5090539;28;20043;-59
2021/09/18 11:21:16;;;;;;;35.28;23.55;;;;;;;23.74;24.85;100189.78;5089674;28;20284;-59
2021/09/18 11:23:45;;;;;;;10.15;2.08;;;;;;;23.43;24.91;100192.22;5088636;28;20047;-59
2021/09/18 11:26:41;;;;;;;5.78;1.77;;;;;;;22.59;25.99;100192.59;5089736;28;20404;-59
2021/09/18 11:29:17;;;;;;;2.30;1.88;;;;;;;22.83;26.03;100189.03;5088211;28;20404;-59
2021/09/18 11:31:54;;;;;;;4.32;2.10;;;;;;;24.60;24.06;100198.53;5089370;28;20415;-60
2021/09/18 11:34:27;;;;;;;4.85;3.03;;;;;;;24.58;24.20;100189.03;5082006;28;20036;-60
2021/09/18 11:36:55;;;;;;;8.65;3.60;;;;;;;24.48;24.72;100189.81;5071883;28;20485;-59